Valle Di Nervion — IBPC — position and weather

sailwx.info

Track history (hours):
 
Tides and Currents Weather Stations Pressure Air Temp Water Temp Dewpoint Dewpoint Depression Visibility Wind Speed Wind Dir Waves Ship Positions

Valle Di Nervion

Last reported at 2017-Mar-23 22:32 UTC. Time now 2017-Mar-27 22:18 UTC.
Position N 38°49' E 009°20'.

Length 176 m; draft 9.1 m.

Type: Ship. MMSI: 247109500.

Date/timePositionNaut miles runAvg speedWind from/ knotsBaromVisibWave heightAir tempDewpointWater temp
2017-Mar-23 22:32N 38°49' E 009°20'1111.2
2017-Mar-23 21:33N 38°59' E 009°13'1110.6
2017-Mar-23 20:33N 39°06' E 009°03'1 0.5
2017-Mar-23 19:31N 39°05' E 009°02'0 0.0
2017-Mar-22 10:33N 39°05' E 009°02'1 1.4
2017-Mar-22 09:30N 39°04' E 009°03'0 0.1
2017-Mar-22 08:33N 39°04' E 009°03'10 8.5
2017-Mar-22 07:21N 39°01' E 009°16'1012.9
2017-Mar-22 06:33N 38°59' E 009°29'  
2017-Mar-16 20:21N 41°32' E 011°20'1012.8
2017-Mar-16 19:33N 41°22' E 011°14'16412.5
2017-Mar-16 06:31N 38°59' E 009°32'1212.6
2017-Mar-16 05:33N 39°01' E 009°16'1010.5
2017-Mar-16 04:33N 39°04' E 009°03'0 0.1
2017-Mar-16 03:29N 39°04' E 009°03'0 0.2
2017-Mar-16 02:34N 39°05' E 009°03'1 0.0
2017-Mar-14 19:32N 39°05' E 009°02'5 5.4
2017-Mar-14 18:33N 39°00' E 009°05'1212.3
2017-Mar-14 17:33N 38°51' E 008°54'  
Track history (hours):
 
Tides and Currents Weather Stations Pressure Air Temp Water Temp Dewpoint Dewpoint Depression Visibility Wind Speed Wind Dir Waves Ship Positions

Valle Di Nervion

Last reported at 2017-Mar-23 22:32 UTC. Time now 2017-Mar-27 22:18 UTC.
Position N 38°49' E 009°20'.

Length 176 m; draft 9.1 m.

Type: Ship. MMSI: 247109500.

Date/timePositionNaut miles runAvg speedWind from/ knotsBaromVisibWave heightAir tempDewpointWater temp
2017-Mar-23 22:32N 38°49' E 009°20'1111.2
2017-Mar-23 21:33N 38°59' E 009°13'1110.6
2017-Mar-23 20:33N 39°06' E 009°03'1 0.5
2017-Mar-23 19:31N 39°05' E 009°02'0 0.0
2017-Mar-22 10:33N 39°05' E 009°02'1 1.4
2017-Mar-22 09:30N 39°04' E 009°03'0 0.1
2017-Mar-22 08:33N 39°04' E 009°03'10 8.5
2017-Mar-22 07:21N 39°01' E 009°16'1012.9
2017-Mar-22 06:33N 38°59' E 009°29'  
2017-Mar-16 20:21N 41°32' E 011°20'1012.8
2017-Mar-16 19:33N 41°22' E 011°14'16412.5
2017-Mar-16 06:31N 38°59' E 009°32'1212.6
2017-Mar-16 05:33N 39°01' E 009°16'1010.5
2017-Mar-16 04:33N 39°04' E 009°03'0 0.1
2017-Mar-16 03:29N 39°04' E 009°03'0 0.2
2017-Mar-16 02:34N 39°05' E 009°03'1 0.0
2017-Mar-14 19:32N 39°05' E 009°02'5 5.4
2017-Mar-14 18:33N 39°00' E 009°05'1212.3
2017-Mar-14 17:33N 38°51' E 008°54'  

Dump ship's entire track history